sensor_id;sensor_type;location;lat;lon;timestamp;P1;durP1;ratioP1;P2;durP2;ratioP2
71290;SDS011;59073;51.994;4.448;2023-08-24T00:00:30;3.22;;;3.22;;
71290;SDS011;59073;51.994;4.448;2023-08-24T00:02:57;2.82;;;2.82;;
71290;SDS011;59073;51.994;4.448;2023-08-24T00:05:23;2.50;;;2.50;;
71290;SDS011;59073;51.994;4.448;2023-08-24T00:07:48;2.50;;;2.50;;
71290;SDS011;59073;51.994;4.448;2023-08-24T00:10:14;2.71;;;2.71;;
71290;SDS011;59073;51.994;4.448;2023-08-24T00:12:39;2.79;;;2.79;;
71290;SDS011;59073;51.994;4.448;2023-08-24T00:15:09;2.75;;;2.75;;
71290;SDS011;59073;51.994;4.448;2023-08-24T00:17:36;2.69;;;2.69;;
71290;SDS011;59073;51.994;4.448;2023-08-24T00:20:04;2.70;;;2.70;;
71290;SDS011;59073;51.994;4.448;2023-08-24T00:22:32;2.62;;;2.62;;
71290;SDS011;59073;51.994;4.448;2023-08-24T00:24:58;2.64;;;2.64;;
71290;SDS011;59073;51.994;4.448;2023-08-24T00:27:24;2.74;;;2.74;;
71290;SDS011;59073;51.994;4.448;2023-08-24T00:29:49;2.80;;;2.80;;
71290;SDS011;59073;51.994;4.448;2023-08-24T00:32:15;2.81;;;2.81;;
71290;SDS011;59073;51.994;4.448;2023-08-24T00:34:40;2.94;;;2.94;;
71290;SDS011;59073;51.994;4.448;2023-08-24T00:37:06;2.62;;;2.62;;
71290;SDS011;59073;51.994;4.448;2023-08-24T00:39:31;2.72;;;2.72;;
71290;SDS011;59073;51.994;4.448;2023-08-24T00:41:56;2.89;;;2.89;;
71290;SDS011;59073;51.994;4.448;2023-08-24T00:44:22;2.84;;;2.84;;
71290;SDS011;59073;51.994;4.448;2023-08-24T00:46:47;2.90;;;2.90;;
71290;SDS011;59073;51.994;4.448;2023-08-24T00:49:13;2.59;;;2.59;;
71290;SDS011;59073;51.994;4.448;2023-08-24T00:51:39;2.76;;;2.76;;
71290;SDS011;59073;51.994;4.448;2023-08-24T00:54:05;2.68;;;2.68;;
71290;SDS011;59073;51.994;4.448;2023-08-24T00:56:31;2.60;;;2.60;;
71290;SDS011;59073;51.994;4.448;2023-08-24T00:58:56;2.89;;;2.89;;
71290;SDS011;59073;51.994;4.448;2023-08-24T01:01:22;3.10;;;3.10;;
71290;SDS011;59073;51.994;4.448;2023-08-24T01:03:49;2.75;;;2.75;;
71290;SDS011;59073;51.994;4.448;2023-08-24T01:06:15;3.04;;;3.04;;
71290;SDS011;59073;51.994;4.448;2023-08-24T01:08:40;2.70;;;2.70;;
71290;SDS011;59073;51.994;4.448;2023-08-24T01:11:17;2.69;;;2.69;;
71290;SDS011;59073;51.994;4.448;2023-08-24T01:14:13;2.86;;;2.86;;
71290;SDS011;59073;51.994;4.448;2023-08-24T01:16:52;2.67;;;2.67;;
71290;SDS011;59073;51.994;4.448;2023-08-24T01:21:59;2.70;;;2.70;;
71290;SDS011;59073;51.994;4.448;2023-08-24T01:24:31;2.63;;;2.63;;
71290;SDS011;59073;51.994;4.448;2023-08-24T01:27:04;2.65;;;2.65;;
71290;SDS011;59073;51.994;4.448;2023-08-24T01:29:31;2.88;;;2.88;;
71290;SDS011;59073;51.994;4.448;2023-08-24T01:31:57;2.82;;;2.82;;
71290;SDS011;59073;51.994;4.448;2023-08-24T01:34:22;3.37;;;3.37;;
71290;SDS011;59073;51.994;4.448;2023-08-24T01:36:47;3.17;;;3.17;;
71290;SDS011;59073;51.994;4.448;2023-08-24T01:39:28;3.16;;;3.16;;
71290;SDS011;59073;51.994;4.448;2023-08-24T01:42:00;3.00;;;3.00;;
71290;SDS011;59073;51.994;4.448;2023-08-24T01:44:30;3.29;;;3.29;;
71290;SDS011;59073;51.994;4.448;2023-08-24T01:47:03;3.48;;;3.48;;
71290;SDS011;59073;51.994;4.448;2023-08-24T01:49:32;3.47;;;3.47;;
71290;SDS011;59073;51.994;4.448;2023-08-24T01:51:59;3.71;;;3.71;;
71290;SDS011;59073;51.994;4.448;2023-08-24T01:54:27;3.71;;;3.71;;
71290;SDS011;59073;51.994;4.448;2023-08-24T01:56:53;4.02;;;4.02;;
71290;SDS011;59073;51.994;4.448;2023-08-24T01:59:18;3.84;;;3.84;;
71290;SDS011;59073;51.994;4.448;2023-08-24T02:01:44;3.71;;;3.71;;
71290;SDS011;59073;51.994;4.448;2023-08-24T02:04:09;3.71;;;3.71;;
71290;SDS011;59073;51.994;4.448;2023-08-24T02:06:34;3.81;;;3.81;;
71290;SDS011;59073;51.994;4.448;2023-08-24T02:09:00;3.93;;;3.93;;
71290;SDS011;59073;51.994;4.448;2023-08-24T02:11:25;3.87;;;3.87;;
71290;SDS011;59073;51.994;4.448;2023-08-24T02:13:51;4.09;;;4.09;;
71290;SDS011;59073;51.994;4.448;2023-08-24T02:16:16;3.97;;;3.97;;
71290;SDS011;59073;51.994;4.448;2023-08-24T02:18:41;4.09;;;4.09;;
71290;SDS011;59073;51.994;4.448;2023-08-24T02:21:07;4.13;;;4.13;;
71290;SDS011;59073;51.994;4.448;2023-08-24T02:23:35;4.26;;;4.26;;
71290;SDS011;59073;51.994;4.448;2023-08-24T02:26:00;4.07;;;4.07;;
71290;SDS011;59073;51.994;4.448;2023-08-24T02:28:26;4.27;;;4.27;;
71290;SDS011;59073;51.994;4.448;2023-08-24T02:30:51;4.34;;;4.34;;
71290;SDS011;59073;51.994;4.448;2023-08-24T02:33:17;4.37;;;4.37;;
71290;SDS011;59073;51.994;4.448;2023-08-24T02:35:42;4.37;;;4.37;;
71290;SDS011;59073;51.994;4.448;2023-08-24T02:38:09;4.21;;;4.21;;
71290;SDS011;59073;51.994;4.448;2023-08-24T02:40:35;4.01;;;4.01;;
71290;SDS011;59073;51.994;4.448;2023-08-24T02:43:00;3.98;;;3.98;;
71290;SDS011;59073;51.994;4.448;2023-08-24T02:45:26;4.25;;;4.25;;
71290;SDS011;59073;51.994;4.448;2023-08-24T02:47:51;3.70;;;3.70;;
71290;SDS011;59073;51.994;4.448;2023-08-24T02:50:16;3.98;;;3.98;;
71290;SDS011;59073;51.994;4.448;2023-08-24T02:52:42;3.73;;;3.73;;
71290;SDS011;59073;51.994;4.448;2023-08-24T02:55:07;3.63;;;3.63;;
71290;SDS011;59073;51.994;4.448;2023-08-24T02:57:34;3.50;;;3.50;;
71290;SDS011;59073;51.994;4.448;2023-08-24T03:00:00;3.69;;;3.69;;
71290;SDS011;59073;51.994;4.448;2023-08-24T03:02:25;3.91;;;3.91;;
71290;SDS011;59073;51.994;4.448;2023-08-24T03:04:51;4.18;;;4.18;;
71290;SDS011;59073;51.994;4.448;2023-08-24T03:07:16;4.32;;;4.32;;
71290;SDS011;59073;51.994;4.448;2023-08-24T03:09:41;4.16;;;4.16;;
71290;SDS011;59073;51.994;4.448;2023-08-24T03:12:07;4.44;;;4.44;;
71290;SDS011;59073;51.994;4.448;2023-08-24T03:14:33;5.00;;;5.00;;
71290;SDS011;59073;51.994;4.448;2023-08-24T03:16:58;4.70;;;4.70;;
71290;SDS011;59073;51.994;4.448;2023-08-24T03:19:23;4.35;;;4.35;;
71290;SDS011;59073;51.994;4.448;2023-08-24T03:21:49;4.66;;;4.66;;
71290;SDS011;59073;51.994;4.448;2023-08-24T03:24:14;4.58;;;4.58;;
71290;SDS011;59073;51.994;4.448;2023-08-24T03:26:40;4.64;;;4.64;;
71290;SDS011;59073;51.994;4.448;2023-08-24T03:29:05;4.76;;;4.76;;
71290;SDS011;59073;51.994;4.448;2023-08-24T03:31:31;4.61;;;4.61;;
71290;SDS011;59073;51.994;4.448;2023-08-24T03:33:56;4.69;;;4.69;;
71290;SDS011;59073;51.994;4.448;2023-08-24T03:36:21;4.60;;;4.60;;
71290;SDS011;59073;51.994;4.448;2023-08-24T03:38:47;4.78;;;4.78;;
71290;SDS011;59073;51.994;4.448;2023-08-24T03:41:12;5.00;;;5.00;;
71290;SDS011;59073;51.994;4.448;2023-08-24T03:43:38;4.36;;;4.36;;
71290;SDS011;59073;51.994;4.448;2023-08-24T03:46:03;4.72;;;4.72;;
71290;SDS011;59073;51.994;4.448;2023-08-24T03:48:30;4.75;;;4.75;;
71290;SDS011;59073;51.994;4.448;2023-08-24T03:50:56;5.27;;;5.27;;
71290;SDS011;59073;51.994;4.448;2023-08-24T03:53:23;4.89;;;4.89;;
71290;SDS011;59073;51.994;4.448;2023-08-24T03:55:50;5.22;;;5.22;;
71290;SDS011;59073;51.994;4.448;2023-08-24T03:58:17;4.93;;;4.93;;
71290;SDS011;59073;51.994;4.448;2023-08-24T04:00:43;5.15;;;5.15;;
71290;SDS011;59073;51.994;4.448;2023-08-24T04:03:09;5.42;;;5.42;;
71290;SDS011;59073;51.994;4.448;2023-08-24T04:05:35;5.37;;;5.37;;
71290;SDS011;59073;51.994;4.448;2023-08-24T04:08:00;5.50;;;5.50;;
71290;SDS011;59073;51.994;4.448;2023-08-24T04:10:26;5.04;;;5.04;;
71290;SDS011;59073;51.994;4.448;2023-08-24T04:12:52;5.01;;;5.01;;
71290;SDS011;59073;51.994;4.448;2023-08-24T04:15:18;5.19;;;5.19;;
71290;SDS011;59073;51.994;4.448;2023-08-24T04:17:43;4.83;;;4.83;;
71290;SDS011;59073;51.994;4.448;2023-08-24T04:20:09;5.10;;;5.10;;
71290;SDS011;59073;51.994;4.448;2023-08-24T04:22:35;4.85;;;4.85;;
71290;SDS011;59073;51.994;4.448;2023-08-24T04:25:00;5.27;;;5.27;;
71290;SDS011;59073;51.994;4.448;2023-08-24T04:27:26;4.89;;;4.89;;
71290;SDS011;59073;51.994;4.448;2023-08-24T04:29:51;5.59;;;5.59;;
71290;SDS011;59073;51.994;4.448;2023-08-24T04:32:17;5.57;;;5.57;;
71290;SDS011;59073;51.994;4.448;2023-08-24T04:34:42;5.65;;;5.65;;
71290;SDS011;59073;51.994;4.448;2023-08-24T04:37:08;5.46;;;5.46;;
71290;SDS011;59073;51.994;4.448;2023-08-24T04:39:34;5.72;;;5.72;;
71290;SDS011;59073;51.994;4.448;2023-08-24T04:42:00;5.74;;;5.74;;
71290;SDS011;59073;51.994;4.448;2023-08-24T04:44:25;5.49;;;5.49;;
71290;SDS011;59073;51.994;4.448;2023-08-24T04:46:51;5.57;;;5.57;;
71290;SDS011;59073;51.994;4.448;2023-08-24T04:49:16;5.35;;;5.35;;
71290;SDS011;59073;51.994;4.448;2023-08-24T04:51:42;5.62;;;5.56;;
71290;SDS011;59073;51.994;4.448;2023-08-24T04:54:07;5.38;;;5.38;;
71290;SDS011;59073;51.994;4.448;2023-08-24T04:56:33;5.36;;;5.36;;
71290;SDS011;59073;51.994;4.448;2023-08-24T04:58:59;5.73;;;5.73;;
71290;SDS011;59073;51.994;4.448;2023-08-24T05:01:26;5.53;;;5.53;;
71290;SDS011;59073;51.994;4.448;2023-08-24T05:03:55;5.56;;;5.56;;
71290;SDS011;59073;51.994;4.448;2023-08-24T05:06:20;5.73;;;5.73;;
71290;SDS011;59073;51.994;4.448;2023-08-24T05:08:46;5.85;;;5.85;;
71290;SDS011;59073;51.994;4.448;2023-08-24T05:11:12;6.05;;;6.05;;
71290;SDS011;59073;51.994;4.448;2023-08-24T05:13:40;6.03;;;6.03;;
71290;SDS011;59073;51.994;4.448;2023-08-24T05:16:05;6.41;;;6.41;;
71290;SDS011;59073;51.994;4.448;2023-08-24T05:18:31;5.83;;;5.83;;
71290;SDS011;59073;51.994;4.448;2023-08-24T05:20:56;6.42;;;6.42;;
71290;SDS011;59073;51.994;4.448;2023-08-24T05:23:22;6.29;;;6.29;;
71290;SDS011;59073;51.994;4.448;2023-08-24T05:25:47;6.02;;;6.02;;
71290;SDS011;59073;51.994;4.448;2023-08-24T05:28:12;6.10;;;6.10;;
71290;SDS011;59073;51.994;4.448;2023-08-24T05:30:38;6.39;;;6.39;;
71290;SDS011;59073;51.994;4.448;2023-08-24T05:33:03;6.14;;;6.14;;
71290;SDS011;59073;51.994;4.448;2023-08-24T05:35:29;6.05;;;6.05;;
71290;SDS011;59073;51.994;4.448;2023-08-24T05:37:54;6.68;;;6.68;;
71290;SDS011;59073;51.994;4.448;2023-08-24T05:40:20;6.17;;;6.17;;
71290;SDS011;59073;51.994;4.448;2023-08-24T05:42:45;5.78;;;5.78;;
71290;SDS011;59073;51.994;4.448;2023-08-24T05:45:10;6.67;;;6.67;;
71290;SDS011;59073;51.994;4.448;2023-08-24T05:47:37;6.12;;;6.12;;
71290;SDS011;59073;51.994;4.448;2023-08-24T05:50:02;6.06;;;6.06;;
71290;SDS011;59073;51.994;4.448;2023-08-24T05:52:28;6.28;;;6.28;;
71290;SDS011;59073;51.994;4.448;2023-08-24T05:54:53;6.04;;;6.04;;
71290;SDS011;59073;51.994;4.448;2023-08-24T05:57:19;6.38;;;6.38;;
71290;SDS011;59073;51.994;4.448;2023-08-24T05:59:44;6.21;;;6.21;;
71290;SDS011;59073;51.994;4.448;2023-08-24T06:02:09;6.51;;;6.51;;
71290;SDS011;59073;51.994;4.448;2023-08-24T06:04:35;6.19;;;6.19;;
71290;SDS011;59073;51.994;4.448;2023-08-24T06:07:00;5.96;;;5.96;;
71290;SDS011;59073;51.994;4.448;2023-08-24T06:09:26;6.22;;;6.22;;
71290;SDS011;59073;51.994;4.448;2023-08-24T06:11:51;6.82;;;6.82;;
71290;SDS011;59073;51.994;4.448;2023-08-24T06:14:17;6.39;;;6.39;;
71290;SDS011;59073;51.994;4.448;2023-08-24T06:16:42;6.79;;;6.79;;
71290;SDS011;59073;51.994;4.448;2023-08-24T06:19:07;6.08;;;6.08;;
71290;SDS011;59073;51.994;4.448;2023-08-24T06:21:33;5.74;;;5.74;;
71290;SDS011;59073;51.994;4.448;2023-08-24T06:23:58;6.39;;;6.39;;
71290;SDS011;59073;51.994;4.448;2023-08-24T06:26:26;6.59;;;6.59;;
71290;SDS011;59073;51.994;4.448;2023-08-24T06:28:51;6.51;;;6.51;;
71290;SDS011;59073;51.994;4.448;2023-08-24T06:31:16;6.97;;;6.97;;
71290;SDS011;59073;51.994;4.448;2023-08-24T06:33:42;6.52;;;6.52;;
71290;SDS011;59073;51.994;4.448;2023-08-24T06:36:07;7.04;;;7.04;;
71290;SDS011;59073;51.994;4.448;2023-08-24T06:38:33;7.08;;;7.08;;
71290;SDS011;59073;51.994;4.448;2023-08-24T06:40:59;7.38;;;7.38;;
71290;SDS011;59073;51.994;4.448;2023-08-24T06:43:25;6.83;;;6.83;;
71290;SDS011;59073;51.994;4.448;2023-08-24T06:45:51;7.29;;;7.29;;
71290;SDS011;59073;51.994;4.448;2023-08-24T06:48:16;7.65;;;7.65;;
71290;SDS011;59073;51.994;4.448;2023-08-24T06:50:43;7.84;;;7.84;;
71290;SDS011;59073;51.994;4.448;2023-08-24T06:53:08;7.66;;;7.66;;
71290;SDS011;59073;51.994;4.448;2023-08-24T06:55:34;7.74;;;7.74;;
71290;SDS011;59073;51.994;4.448;2023-08-24T06:57:59;7.62;;;7.62;;
71290;SDS011;59073;51.994;4.448;2023-08-24T07:00:24;7.92;;;7.92;;
71290;SDS011;59073;51.994;4.448;2023-08-24T07:02:51;7.73;;;7.73;;
71290;SDS011;59073;51.994;4.448;2023-08-24T07:05:16;8.13;;;8.13;;
71290;SDS011;59073;51.994;4.448;2023-08-24T07:07:45;8.24;;;8.24;;
71290;SDS011;59073;51.994;4.448;2023-08-24T07:10:12;7.96;;;7.96;;
71290;SDS011;59073;51.994;4.448;2023-08-24T07:12:38;8.56;;;8.56;;
71290;SDS011;59073;51.994;4.448;2023-08-24T07:15:07;8.26;;;8.26;;
71290;SDS011;59073;51.994;4.448;2023-08-24T07:17:33;8.69;;;8.69;;
71290;SDS011;59073;51.994;4.448;2023-08-24T07:19:59;8.53;;;8.53;;
71290;SDS011;59073;51.994;4.448;2023-08-24T07:22:24;8.53;;;8.53;;
71290;SDS011;59073;51.994;4.448;2023-08-24T07:24:53;8.55;;;8.55;;
71290;SDS011;59073;51.994;4.448;2023-08-24T07:27:19;8.37;;;8.37;;
71290;SDS011;59073;51.994;4.448;2023-08-24T07:29:45;8.09;;;8.09;;
71290;SDS011;59073;51.994;4.448;2023-08-24T07:32:10;7.91;;;7.91;;
71290;SDS011;59073;51.994;4.448;2023-08-24T07:34:36;8.60;;;8.60;;
71290;SDS011;59073;51.994;4.448;2023-08-24T07:37:01;8.22;;;8.22;;
71290;SDS011;59073;51.994;4.448;2023-08-24T07:39:27;7.90;;;7.90;;
71290;SDS011;59073;51.994;4.448;2023-08-24T07:41:53;8.48;;;8.48;;
71290;SDS011;59073;51.994;4.448;2023-08-24T07:44:18;8.21;;;8.21;;
71290;SDS011;59073;51.994;4.448;2023-08-24T07:46:44;7.82;;;7.82;;
71290;SDS011;59073;51.994;4.448;2023-08-24T07:49:09;8.06;;;8.06;;
71290;SDS011;59073;51.994;4.448;2023-08-24T07:51:35;7.77;;;7.77;;
71290;SDS011;59073;51.994;4.448;2023-08-24T07:54:01;7.96;;;7.96;;
71290;SDS011;59073;51.994;4.448;2023-08-24T07:56:29;8.75;;;8.75;;
71290;SDS011;59073;51.994;4.448;2023-08-24T07:58:55;8.19;;;8.19;;
71290;SDS011;59073;51.994;4.448;2023-08-24T08:01:20;7.51;;;7.51;;
71290;SDS011;59073;51.994;4.448;2023-08-24T08:03:46;8.45;;;8.45;;
71290;SDS011;59073;51.994;4.448;2023-08-24T08:06:11;7.90;;;7.90;;
71290;SDS011;59073;51.994;4.448;2023-08-24T08:08:38;7.71;;;7.71;;
71290;SDS011;59073;51.994;4.448;2023-08-24T08:11:04;7.86;;;7.86;;
71290;SDS011;59073;51.994;4.448;2023-08-24T08:13:29;8.09;;;8.09;;
71290;SDS011;59073;51.994;4.448;2023-08-24T08:16:04;8.60;;;8.60;;
71290;SDS011;59073;51.994;4.448;2023-08-24T08:18:31;8.62;;;8.62;;
71290;SDS011;59073;51.994;4.448;2023-08-24T08:20:58;8.09;;;8.09;;
71290;SDS011;59073;51.994;4.448;2023-08-24T08:23:24;8.46;;;8.46;;
71290;SDS011;59073;51.994;4.448;2023-08-24T08:25:50;8.12;;;8.12;;
71290;SDS011;59073;51.994;4.448;2023-08-24T08:28:16;7.92;;;7.92;;
71290;SDS011;59073;51.994;4.448;2023-08-24T08:30:42;7.83;;;7.83;;
71290;SDS011;59073;51.994;4.448;2023-08-24T08:33:08;7.93;;;7.93;;
71290;SDS011;59073;51.994;4.448;2023-08-24T08:35:33;8.17;;;8.17;;
71290;SDS011;59073;51.994;4.448;2023-08-24T08:37:59;8.16;;;8.16;;
71290;SDS011;59073;51.994;4.448;2023-08-24T08:40:25;8.52;;;8.52;;
71290;SDS011;59073;51.994;4.448;2023-08-24T08:42:55;8.28;;;8.28;;
71290;SDS011;59073;51.994;4.448;2023-08-24T08:45:24;8.34;;;8.34;;
71290;SDS011;59073;51.994;4.448;2023-08-24T08:48:00;7.77;;;7.77;;
71290;SDS011;59073;51.994;4.448;2023-08-24T08:50:26;8.78;;;8.78;;
71290;SDS011;59073;51.994;4.448;2023-08-24T08:52:52;8.47;;;8.47;;
71290;SDS011;59073;51.994;4.448;2023-08-24T08:55:18;8.42;;;8.42;;
71290;SDS011;59073;51.994;4.448;2023-08-24T08:57:47;8.05;;;8.05;;
71290;SDS011;59073;51.994;4.448;2023-08-24T09:00:17;7.98;;;7.98;;
71290;SDS011;59073;51.994;4.448;2023-08-24T09:02:44;8.57;;;8.56;;
71290;SDS011;59073;51.994;4.448;2023-08-24T09:05:11;7.86;;;7.86;;
71290;SDS011;59073;51.994;4.448;2023-08-24T09:07:39;8.35;;;8.35;;
71290;SDS011;59073;51.994;4.448;2023-08-24T09:10:05;8.05;;;8.05;;
71290;SDS011;59073;51.994;4.448;2023-08-24T09:12:32;7.94;;;7.94;;
71290;SDS011;59073;51.994;4.448;2023-08-24T09:14:58;7.95;;;7.95;;
71290;SDS011;59073;51.994;4.448;2023-08-24T09:17:24;7.95;;;7.95;;
71290;SDS011;59073;51.994;4.448;2023-08-24T09:19:50;7.67;;;7.67;;
71290;SDS011;59073;51.994;4.448;2023-08-24T09:22:19;7.49;;;7.49;;
71290;SDS011;59073;51.994;4.448;2023-08-24T09:24:44;7.32;;;7.32;;
71290;SDS011;59073;51.994;4.448;2023-08-24T09:27:16;8.48;;;8.48;;
71290;SDS011;59073;51.994;4.448;2023-08-24T09:29:43;7.52;;;7.52;;
71290;SDS011;59073;51.994;4.448;2023-08-24T09:32:12;7.75;;;7.74;;
71290;SDS011;59073;51.994;4.448;2023-08-24T09:34:37;7.75;;;7.75;;
71290;SDS011;59073;51.994;4.448;2023-08-24T09:37:03;7.65;;;7.65;;
71290;SDS011;59073;51.994;4.448;2023-08-24T09:39:29;8.09;;;8.09;;
71290;SDS011;59073;51.994;4.448;2023-08-24T09:41:55;7.70;;;7.70;;
71290;SDS011;59073;51.994;4.448;2023-08-24T09:44:26;7.47;;;7.47;;
71290;SDS011;59073;51.994;4.448;2023-08-24T09:46:53;7.67;;;7.67;;
71290;SDS011;59073;51.994;4.448;2023-08-24T09:49:19;7.61;;;7.61;;
71290;SDS011;59073;51.994;4.448;2023-08-24T09:51:45;7.12;;;7.12;;
71290;SDS011;59073;51.994;4.448;2023-08-24T09:54:11;7.18;;;7.18;;
71290;SDS011;59073;51.994;4.448;2023-08-24T09:56:39;7.61;;;7.61;;
71290;SDS011;59073;51.994;4.448;2023-08-24T09:59:15;7.44;;;7.44;;
71290;SDS011;59073;51.994;4.448;2023-08-24T10:01:47;7.78;;;7.78;;
71290;SDS011;59073;51.994;4.448;2023-08-24T10:04:15;6.74;;;6.74;;
71290;SDS011;59073;51.994;4.448;2023-08-24T10:06:45;6.62;;;6.62;;
71290;SDS011;59073;51.994;4.448;2023-08-24T10:09:19;7.04;;;7.04;;
71290;SDS011;59073;51.994;4.448;2023-08-24T10:11:51;7.63;;;7.63;;
71290;SDS011;59073;51.994;4.448;2023-08-24T10:14:38;7.63;;;7.63;;
71290;SDS011;59073;51.994;4.448;2023-08-24T10:17:13;7.35;;;7.35;;
71290;SDS011;59073;51.994;4.448;2023-08-24T10:19:39;7.45;;;7.45;;
71290;SDS011;59073;51.994;4.448;2023-08-24T10:22:07;6.89;;;6.89;;
71290;SDS011;59073;51.994;4.448;2023-08-24T10:24:33;7.83;;;7.83;;
71290;SDS011;59073;51.994;4.448;2023-08-24T10:27:03;7.36;;;7.36;;
71290;SDS011;59073;51.994;4.448;2023-08-24T10:29:29;7.14;;;7.14;;
71290;SDS011;59073;51.994;4.448;2023-08-24T10:31:55;7.45;;;7.45;;
71290;SDS011;59073;51.994;4.448;2023-08-24T10:34:22;7.79;;;7.79;;
71290;SDS011;59073;51.994;4.448;2023-08-24T10:36:48;7.84;;;7.84;;
71290;SDS011;59073;51.994;4.448;2023-08-24T10:39:14;7.90;;;7.90;;
71290;SDS011;59073;51.994;4.448;2023-08-24T10:41:47;7.96;;;7.96;;
71290;SDS011;59073;51.994;4.448;2023-08-24T10:44:33;7.30;;;7.30;;
71290;SDS011;59073;51.994;4.448;2023-08-24T10:50:03;7.69;;;7.69;;
71290;SDS011;59073;51.994;4.448;2023-08-24T10:52:35;7.38;;;7.38;;
71290;SDS011;59073;51.994;4.448;2023-08-24T10:55:04;7.59;;;7.59;;
71290;SDS011;59073;51.994;4.448;2023-08-24T10:57:47;8.09;;;8.09;;
71290;SDS011;59073;51.994;4.448;2023-08-24T11:00:22;7.79;;;7.79;;
71290;SDS011;59073;51.994;4.448;2023-08-24T11:02:52;7.80;;;7.80;;
71290;SDS011;59073;51.994;4.448;2023-08-24T11:05:19;8.03;;;8.03;;
71290;SDS011;59073;51.994;4.448;2023-08-24T11:07:56;8.53;;;8.53;;
71290;SDS011;59073;51.994;4.448;2023-08-24T11:13:08;8.65;;;8.65;;
71290;SDS011;59073;51.994;4.448;2023-08-24T11:15:44;8.29;;;8.29;;
71290;SDS011;59073;51.994;4.448;2023-08-24T11:18:24;8.09;;;8.09;;
71290;SDS011;59073;51.994;4.448;2023-08-24T11:21:04;8.70;;;8.70;;
71290;SDS011;59073;51.994;4.448;2023-08-24T11:23:31;8.44;;;8.44;;
71290;SDS011;59073;51.994;4.448;2023-08-24T11:25:58;9.04;;;9.04;;
71290;SDS011;59073;51.994;4.448;2023-08-24T11:28:28;8.99;;;8.99;;
71290;SDS011;59073;51.994;4.448;2023-08-24T11:30:55;9.34;;;9.34;;
71290;SDS011;59073;51.994;4.448;2023-08-24T11:33:31;9.27;;;9.27;;
71290;SDS011;59073;51.994;4.448;2023-08-24T11:35:59;9.84;;;9.84;;
71290;SDS011;59073;51.994;4.448;2023-08-24T11:38:34;10.29;;;10.29;;
71290;SDS011;59073;51.994;4.448;2023-08-24T11:41:18;10.10;;;10.10;;
71290;SDS011;59073;51.994;4.448;2023-08-24T11:43:46;10.01;;;10.01;;
71290;SDS011;59073;51.994;4.448;2023-08-24T11:46:13;10.55;;;10.55;;
71290;SDS011;59073;51.994;4.448;2023-08-24T11:48:41;10.30;;;10.30;;
71290;SDS011;59073;51.994;4.448;2023-08-24T11:51:09;10.56;;;10.56;;
71290;SDS011;59073;51.994;4.448;2023-08-24T11:53:38;10.10;;;10.10;;
71290;SDS011;59073;51.994;4.448;2023-08-24T11:56:05;9.98;;;9.98;;
71290;SDS011;59073;51.994;4.448;2023-08-24T11:58:33;10.33;;;10.33;;
71290;SDS011;59073;51.994;4.448;2023-08-24T12:00:59;10.97;;;10.97;;
71290;SDS011;59073;51.994;4.448;2023-08-24T12:03:25;10.74;;;10.74;;
71290;SDS011;59073;51.994;4.448;2023-08-24T12:05:51;10.30;;;10.30;;
71290;SDS011;59073;51.994;4.448;2023-08-24T12:08:16;10.44;;;10.44;;
71290;SDS011;59073;51.994;4.448;2023-08-24T12:10:42;9.85;;;9.85;;
71290;SDS011;59073;51.994;4.448;2023-08-24T12:13:08;10.09;;;10.09;;
71290;SDS011;59073;51.994;4.448;2023-08-24T12:15:35;10.73;;;10.73;;
71290;SDS011;59073;51.994;4.448;2023-08-24T12:18:12;10.61;;;10.61;;
71290;SDS011;59073;51.994;4.448;2023-08-24T12:20:41;10.69;;;10.69;;
71290;SDS011;59073;51.994;4.448;2023-08-24T12:23:08;10.37;;;10.37;;
71290;SDS011;59073;51.994;4.448;2023-08-24T12:25:38;10.32;;;10.32;;
71290;SDS011;59073;51.994;4.448;2023-08-24T12:28:10;10.82;;;10.82;;
71290;SDS011;59073;51.994;4.448;2023-08-24T12:31:12;10.29;;;10.29;;
71290;SDS011;59073;51.994;4.448;2023-08-24T12:33:30;11.07;;;11.07;;
71290;SDS011;59073;51.994;4.448;2023-08-24T12:35:57;11.02;;;11.02;;
71290;SDS011;59073;51.994;4.448;2023-08-24T12:38:24;11.33;;;11.33;;
71290;SDS011;59073;51.994;4.448;2023-08-24T12:40:51;10.70;;;10.70;;
71290;SDS011;59073;51.994;4.448;2023-08-24T12:43:17;10.89;;;10.89;;
71290;SDS011;59073;51.994;4.448;2023-08-24T12:45:43;11.04;;;11.04;;
71290;SDS011;59073;51.994;4.448;2023-08-24T12:48:09;11.19;;;11.19;;
71290;SDS011;59073;51.994;4.448;2023-08-24T12:50:36;10.98;;;10.98;;
71290;SDS011;59073;51.994;4.448;2023-08-24T12:53:03;11.57;;;11.57;;
71290;SDS011;59073;51.994;4.448;2023-08-24T12:55:31;11.36;;;11.36;;
71290;SDS011;59073;51.994;4.448;2023-08-24T12:57:58;11.50;;;11.50;;
71290;SDS011;59073;51.994;4.448;2023-08-24T13:00:24;11.00;;;11.00;;
71290;SDS011;59073;51.994;4.448;2023-08-24T13:02:51;11.59;;;11.59;;
71290;SDS011;59073;51.994;4.448;2023-08-24T13:05:17;10.82;;;10.82;;
71290;SDS011;59073;51.994;4.448;2023-08-24T13:07:42;10.97;;;10.97;;
71290;SDS011;59073;51.994;4.448;2023-08-24T13:10:08;10.63;;;10.63;;
71290;SDS011;59073;51.994;4.448;2023-08-24T13:12:34;11.04;;;11.04;;
71290;SDS011;59073;51.994;4.448;2023-08-24T13:15:00;11.52;;;11.52;;
71290;SDS011;59073;51.994;4.448;2023-08-24T13:17:25;10.26;;;10.26;;
71290;SDS011;59073;51.994;4.448;2023-08-24T13:19:51;11.10;;;11.10;;
71290;SDS011;59073;51.994;4.448;2023-08-24T13:22:16;10.78;;;10.78;;
71290;SDS011;59073;51.994;4.448;2023-08-24T13:24:42;10.96;;;10.96;;
71290;SDS011;59073;51.994;4.448;2023-08-24T13:27:09;9.88;;;9.88;;
71290;SDS011;59073;51.994;4.448;2023-08-24T13:29:36;7.41;;;7.41;;
71290;SDS011;59073;51.994;4.448;2023-08-24T13:32:02;7.07;;;7.07;;
71290;SDS011;59073;51.994;4.448;2023-08-24T13:34:28;7.41;;;7.41;;
71290;SDS011;59073;51.994;4.448;2023-08-24T13:36:54;6.80;;;6.80;;
71290;SDS011;59073;51.994;4.448;2023-08-24T13:39:19;7.49;;;7.49;;
71290;SDS011;59073;51.994;4.448;2023-08-24T13:41:44;13.79;;;13.79;;
71290;SDS011;59073;51.994;4.448;2023-08-24T13:44:10;10.95;;;10.95;;
71290;SDS011;59073;51.994;4.448;2023-08-24T13:46:35;6.90;;;6.90;;
71290;SDS011;59073;51.994;4.448;2023-08-24T13:49:01;8.43;;;8.43;;
71290;SDS011;59073;51.994;4.448;2023-08-24T13:51:27;7.08;;;7.08;;
71290;SDS011;59073;51.994;4.448;2023-08-24T13:53:53;7.63;;;7.63;;
71290;SDS011;59073;51.994;4.448;2023-08-24T13:56:19;6.89;;;6.89;;
71290;SDS011;59073;51.994;4.448;2023-08-24T13:58:44;6.78;;;6.78;;
71290;SDS011;59073;51.994;4.448;2023-08-24T14:01:10;7.50;;;7.50;;
71290;SDS011;59073;51.994;4.448;2023-08-24T14:03:35;7.38;;;7.38;;
71290;SDS011;59073;51.994;4.448;2023-08-24T14:06:02;7.47;;;7.47;;
71290;SDS011;59073;51.994;4.448;2023-08-24T14:08:28;7.51;;;7.51;;
71290;SDS011;59073;51.994;4.448;2023-08-24T14:10:53;6.32;;;6.32;;
71290;SDS011;59073;51.994;4.448;2023-08-24T14:13:19;6.35;;;6.35;;
71290;SDS011;59073;51.994;4.448;2023-08-24T14:15:45;5.47;;;5.47;;
71290;SDS011;59073;51.994;4.448;2023-08-24T14:18:13;6.86;;;6.86;;
71290;SDS011;59073;51.994;4.448;2023-08-24T14:20:39;6.80;;;6.80;;
71290;SDS011;59073;51.994;4.448;2023-08-24T14:23:04;6.65;;;6.65;;
71290;SDS011;59073;51.994;4.448;2023-08-24T14:25:29;6.45;;;6.45;;
71290;SDS011;59073;51.994;4.448;2023-08-24T14:27:55;6.58;;;6.58;;
71290;SDS011;59073;51.994;4.448;2023-08-24T14:30:20;6.99;;;6.99;;
71290;SDS011;59073;51.994;4.448;2023-08-24T14:32:46;6.66;;;6.66;;
71290;SDS011;59073;51.994;4.448;2023-08-24T14:35:11;7.18;;;7.18;;
71290;SDS011;59073;51.994;4.448;2023-08-24T14:37:37;7.04;;;7.04;;
71290;SDS011;59073;51.994;4.448;2023-08-24T14:40:04;6.81;;;6.81;;
71290;SDS011;59073;51.994;4.448;2023-08-24T14:42:31;7.20;;;7.20;;
71290;SDS011;59073;51.994;4.448;2023-08-24T14:44:56;7.45;;;7.45;;
71290;SDS011;59073;51.994;4.448;2023-08-24T14:47:21;7.28;;;7.28;;
71290;SDS011;59073;51.994;4.448;2023-08-24T14:49:47;6.59;;;6.59;;
71290;SDS011;59073;51.994;4.448;2023-08-24T14:52:13;7.08;;;7.08;;